Search for airport 
image banner adimage banner adimage banner ad
image banner ad

S51 - Andy Mc Beth

Located in Klamath Glen, United States

ICAO - S51, IATA -

Data provided by Airmate  

General information

Coordinates: N41°30'43" W123°59'44"
Elevation is 42 feet MSL.
Magnetic variation is 18° East
View others Airports in California

Operational data

Special qualification required
Current time UTC:
Current local time:
Weather at : KCEC - Jack Mc Namara Field ( 36 km )
METAR: KCEC 141047Z AUTO 00000KT 8SM SCT003 OVC055 14/13 A2999 RMK AO2 T01390128
TAF: KCEC 141021Z 1410/1506 VRB05KT 6SM BR BKN030 FM141400 18008KT 3SM BR OVC008 FM142000 19009KT 6SM HZ SCT015 BKN025 FM150400 18003KT 5SM BR SCT007 BKN015
View NOTAMs / SUP AIP / TFR affecting this airport [VIEW]
Communications frequencies: [VIEW]

Runways:

RWY identifierQFULength (ft)Width (ft)SurfaceLDA (ft)
11240050ASPH
29240050ASPH

Airport contact information

Address: Klamath Glen United States

Satellite view of S51